DTTX/SFA METAR and TAF weather

Enter ICAO airport designator
Station Type Date Time Source
DTTX METAR 2018/10/16 15:00 UTC NOAA

DTTX 161500Z 09008KT 9999 FEW020 28/18 Q1012 NOSIG


Station Type Date Time Source
DTTX Decoded METAR 2018/10/16 15:00 UTC NOAA

Sfax El-Maou, Tunisia (DTTX) 34-43N 010-41E 23M
Oct 16, 2018 - 11:00 AM EDT / 2018.10.16 1500 UTC
Wind: from the E (090 degrees) at 9 MPH (8 KT):0
Visibility: greater than 7 mile(s):0
Sky conditions: mostly clear
Temperature: 82 F (28 C)
Dew Point: 64 F (18 C)
Relative Humidity: 54%
Pressure (altimeter): 29.88 in. Hg (1012 hPa)
ob: DTTX 161500Z 09008KT 9999 FEW020 28/18 Q1012 NOSIG
cycle: 15

Station Type Date Time Source
DTTX TAF 2018/10/16 06:57 UTC NOAA

TAF DTTX 160540Z 1606/1706 20007KT 9999 SCT020
BECMG 1614/1616 09010KT PROB40
TEMPO 1620/1706 10015G25KT TS FEW026CB


Example: see airport list